Time;durP1;ratioP1;P1;durP2;ratioP2;P2;SDS_P1;SDS_P2;PMS_P1;PMS_P2;Temp;Humidity;BMP_temperature;BMP_pressure;BME280_temperature;BME280_humidity;BME280_pressure;Samples;Min_cycle;Max_cycle;Signal;HPM_P1;HPM_P2
2021/10/27 00:02:02;;;;;;;3.43;2.60;;;10.60;99.90;;;;;;5057440;28;20304;-74
2021/10/27 00:04:29;;;;;;;5.93;4.00;;;10.60;99.90;;;;;;5058651;28;20758;-74
2021/10/27 00:06:56;;;;;;;4.37;3.97;;;10.60;99.90;;;;;;5056954;28;20614;-74
2021/10/27 00:09:23;;;;;;;5.90;4.43;;;10.50;99.90;;;;;;5057919;28;20675;-74
2021/10/27 00:11:50;;;;;;;4.10;3.67;;;10.50;99.90;;;;;;5052451;28;20204;-74
2021/10/27 00:14:17;;;;;;;3.30;3.10;;;10.50;99.90;;;;;;5051573;28;20732;-74
2021/10/27 00:16:46;;;;;;;4.27;3.87;;;10.50;99.90;;;;;;5058674;28;20267;-74
2021/10/27 00:19:13;;;;;;;3.50;3.20;;;10.50;99.90;;;;;;5057298;28;20264;-74
2021/10/27 00:21:40;;;;;;;3.03;2.83;;;10.50;99.90;;;;;;5064183;28;20199;-74
2021/10/27 00:24:07;;;;;;;3.33;3.03;;;10.50;99.90;;;;;;5064154;28;20192;-74
2021/10/27 00:26:34;;;;;;;4.70;3.93;;;10.50;99.90;;;;;;5059225;28;20226;-74
2021/10/27 00:29:01;;;;;;;4.63;4.23;;;10.50;99.90;;;;;;5056788;28;20277;-74
2021/10/27 00:31:28;;;;;;;4.43;3.87;;;10.40;99.90;;;;;;5044216;28;20205;-74
2021/10/27 00:33:56;;;;;;;3.77;3.47;;;10.40;99.90;;;;;;5045983;28;20223;-74
2021/10/27 00:36:23;;;;;;;4.30;3.33;;;10.50;99.90;;;;;;5033154;28;20204;-74
2021/10/27 00:38:50;;;;;;;4.37;3.97;;;10.40;99.90;;;;;;5045379;28;20628;-74
2021/10/27 00:41:17;;;;;;;5.20;4.20;;;10.40;99.90;;;;;;5059268;28;20200;-74
2021/10/27 00:43:44;;;;;;;4.53;3.57;;;10.50;99.90;;;;;;5056610;28;20193;-74
2021/10/27 00:46:19;;;;;;;5.70;4.77;;;10.50;99.90;;;;;;5051438;28;20236;-75
2021/10/27 00:48:47;;;;;;;4.00;3.50;;;10.50;99.90;;;;;;5051531;28;20207;-75
2021/10/27 00:51:16;;;;;;;3.93;3.33;;;10.50;99.90;;;;;;5063516;28;20203;-75
2021/10/27 00:53:45;;;;;;;4.40;4.00;;;10.60;99.90;;;;;;5056476;28;20197;-75
2021/10/27 00:56:12;;;;;;;3.50;2.90;;;10.50;99.90;;;;;;5048873;28;20198;-74
2021/10/27 00:58:40;;;;;;;3.77;3.20;;;10.50;99.90;;;;;;5049202;28;20746;-74
2021/10/27 01:01:07;;;;;;;3.03;2.83;;;10.50;99.90;;;;;;5051485;28;20208;-74
2021/10/27 01:03:36;;;;;;;2.90;2.70;;;10.50;99.90;;;;;;5046485;28;20194;-74
2021/10/27 01:06:04;;;;;;;2.77;2.57;;;10.50;99.90;;;;;;5062095;28;20684;-74
2021/10/27 01:08:34;;;;;;;2.60;2.40;;;10.50;99.90;;;;;;5056396;28;20670;-74
2021/10/27 01:11:02;;;;;;;2.53;2.33;;;10.50;99.90;;;;;;5051435;28;20198;-74
2021/10/27 01:13:29;;;;;;;2.57;2.37;;;10.50;99.90;;;;;;5051037;28;20232;-74
2021/10/27 01:15:56;;;;;;;2.83;2.53;;;10.50;99.90;;;;;;5043430;28;20710;-74
2021/10/27 01:18:24;;;;;;;2.80;2.60;;;10.50;99.90;;;;;;5039757;28;20674;-74
2021/10/27 01:20:52;;;;;;;2.97;2.60;;;10.40;99.90;;;;;;5038155;28;20733;-74
2021/10/27 01:23:20;;;;;;;2.50;2.40;;;10.40;99.90;;;;;;5062996;28;20197;-74
2021/10/27 01:25:47;;;;;;;3.33;2.80;;;10.40;99.90;;;;;;5050013;28;20226;-74
2021/10/27 01:28:13;;;;;;;3.10;2.60;;;10.40;99.90;;;;;;5050290;28;20200;-74
2021/10/27 01:30:40;;;;;;;3.30;2.60;;;10.40;99.90;;;;;;5049033;28;20214;-75
2021/10/27 01:33:08;;;;;;;3.47;3.17;;;10.40;99.90;;;;;;5058550;28;20246;-74
2021/10/27 01:35:35;;;;;;;3.40;3.20;;;10.30;99.90;;;;;;5050443;28;20295;-74
2021/10/27 01:38:03;;;;;;;3.60;3.30;;;10.30;99.90;;;;;;5032248;28;20584;-74
2021/10/27 01:40:30;;;;;;;3.43;3.13;;;10.30;99.90;;;;;;5061944;28;20283;-75
2021/10/27 01:42:57;;;;;;;3.77;3.47;;;10.30;99.90;;;;;;5031343;28;20220;-74
2021/10/27 01:45:29;;;;;;;3.07;2.77;;;10.30;99.90;;;;;;5044145;28;20224;-74
2021/10/27 01:47:56;;;;;;;2.93;2.73;;;10.20;99.90;;;;;;5031642;28;20226;-74
2021/10/27 01:50:24;;;;;;;3.27;2.97;;;10.30;99.90;;;;;;5043943;28;20292;-74
2021/10/27 01:52:51;;;;;;;3.70;3.40;;;10.20;99.90;;;;;;5032235;28;21192;-74
2021/10/27 01:55:20;;;;;;;4.37;3.50;;;10.20;99.90;;;;;;5044008;28;20236;-74
2021/10/27 01:57:48;;;;;;;4.10;3.70;;;10.20;99.90;;;;;;5032003;28;20213;-73
2021/10/27 02:00:16;;;;;;;4.33;3.53;;;10.20;99.90;;;;;;5043196;28;20210;-74
2021/10/27 02:02:44;;;;;;;4.23;3.83;;;10.10;99.90;;;;;;5031762;28;20578;-74
2021/10/27 02:05:11;;;;;;;4.13;3.27;;;10.10;99.90;;;;;;5044872;28;20212;-74
2021/10/27 02:07:38;;;;;;;3.37;3.07;;;10.10;99.90;;;;;;5043040;28;20201;-74
2021/10/27 02:10:09;;;;;;;4.03;3.60;;;10.10;99.90;;;;;;5049220;28;20208;-74
2021/10/27 02:12:37;;;;;;;5.17;4.10;;;10.10;99.90;;;;;;5050377;28;20228;-74
2021/10/27 02:15:06;;;;;;;5.53;4.40;;;10.00;99.90;;;;;;5030952;28;20209;-74
2021/10/27 02:17:33;;;;;;;5.17;4.40;;;10.00;99.90;;;;;;5062630;28;20680;-74
2021/10/27 02:20:00;;;;;;;4.80;3.97;;;9.90;99.90;;;;;;5056041;28;20655;-74
2021/10/27 02:22:28;;;;;;;4.40;4.00;;;9.90;99.90;;;;;;5055838;28;20707;-74
2021/10/27 02:24:55;;;;;;;4.10;3.67;;;9.90;99.90;;;;;;5050145;28;20208;-74
2021/10/27 02:27:22;;;;;;;3.70;3.00;;;9.90;99.90;;;;;;5055280;28;20659;-75
2021/10/27 02:29:50;;;;;;;4.77;3.37;;;9.80;99.90;;;;;;5049695;28;20738;-75
2021/10/27 02:32:17;;;;;;;3.90;3.50;;;9.80;99.90;;;;;;5066042;28;20277;-75
2021/10/27 02:34:44;;;;;;;4.27;3.87;;;9.80;99.90;;;;;;5031738;28;20205;-75
2021/10/27 02:37:12;;;;;;;4.23;3.63;;;9.70;99.90;;;;;;5031685;28;20209;-75
2021/10/27 02:39:39;;;;;;;5.50;3.77;;;9.70;99.90;;;;;;5037054;28;20207;-75
2021/10/27 02:42:07;;;;;;;4.23;3.47;;;9.70;99.90;;;;;;5036695;28;20206;-75
2021/10/27 02:44:35;;;;;;;4.73;3.77;;;9.70;99.90;;;;;;5031586;28;20214;-75
2021/10/27 02:47:04;;;;;;;5.93;4.47;;;9.70;99.90;;;;;;5031307;28;20626;-75
2021/10/27 02:49:31;;;;;;;4.67;3.40;;;9.70;99.90;;;;;;5031662;28;20206;-75
2021/10/27 02:51:58;;;;;;;4.07;3.67;;;9.70;99.90;;;;;;5050074;28;20626;-75
2021/10/27 02:54:25;;;;;;;4.77;3.90;;;9.70;99.90;;;;;;5049656;28;20239;-75
2021/10/27 02:56:52;;;;;;;4.00;3.60;;;9.70;99.90;;;;;;5032495;28;20208;-75
2021/10/27 02:59:19;;;;;;;3.07;2.77;;;9.60;99.90;;;;;;5030343;28;20570;-75
2021/10/27 03:01:46;;;;;;;7.17;3.50;;;9.60;99.90;;;;;;5049465;28;20404;-75
2021/10/27 03:04:14;;;;;;;4.40;4.00;;;9.60;99.90;;;;;;5038292;28;20306;-75
2021/10/27 03:06:42;;;;;;;5.00;4.10;;;9.60;99.90;;;;;;5030431;28;20733;-75
2021/10/27 03:09:09;;;;;;;6.43;4.63;;;9.60;99.90;;;;;;5058922;28;20614;-75
2021/10/27 03:11:36;;;;;;;6.03;3.97;;;9.60;99.90;;;;;;5054652;28;20201;-75
2021/10/27 03:14:03;;;;;;;7.37;4.27;;;9.60;99.90;;;;;;5049716;28;20744;-75
2021/10/27 03:16:30;;;;;;;6.57;4.63;;;9.60;99.90;;;;;;5038196;28;20222;-75
2021/10/27 03:18:57;;;;;;;6.57;4.70;;;9.70;99.90;;;;;;5041419;28;20217;-75
2021/10/27 03:21:25;;;;;;;7.63;5.23;;;9.70;99.90;;;;;;5049423;28;20205;-75
2021/10/27 03:23:52;;;;;;;7.63;5.43;;;9.70;99.90;;;;;;5049656;28;20211;-75
2021/10/27 03:26:20;;;;;;;8.53;5.30;;;9.70;99.90;;;;;;5049646;28;20223;-75
2021/10/27 03:28:47;;;;;;;8.70;6.17;;;9.70;99.90;;;;;;5036745;28;20241;-75
2021/10/27 03:31:14;;;;;;;10.40;7.03;;;9.70;99.90;;;;;;5042407;28;21076;-75
2021/10/27 03:33:41;;;;;;;9.40;6.97;;;9.70;99.90;;;;;;5043216;28;20202;-75
2021/10/27 03:36:09;;;;;;;8.47;6.03;;;9.70;99.90;;;;;;5040232;28;20198;-75
2021/10/27 03:38:37;;;;;;;7.23;6.07;;;9.70;99.90;;;;;;5061436;28;20204;-75
2021/10/27 03:41:04;;;;;;;9.07;5.87;;;9.80;99.90;;;;;;5055163;28;20626;-75
2021/10/27 03:43:31;;;;;;;7.87;6.40;;;9.80;99.90;;;;;;5067288;28;20509;-75
2021/10/27 03:45:58;;;;;;;8.43;6.50;;;9.80;99.90;;;;;;5059823;28;20692;-74
2021/10/27 03:48:25;;;;;;;8.27;6.00;;;9.80;99.90;;;;;;5061305;28;20203;-74
2021/10/27 03:50:53;;;;;;;11.70;7.40;;;9.80;99.90;;;;;;5058208;28;20204;-75
2021/10/27 03:53:20;;;;;;;8.80;6.40;;;9.90;99.90;;;;;;5052756;28;20211;-75
2021/10/27 03:55:48;;;;;;;9.07;5.70;;;9.90;99.90;;;;;;5038814;28;20320;-75
2021/10/27 03:58:15;;;;;;;8.60;5.83;;;9.90;99.90;;;;;;5046192;28;20215;-75
2021/10/27 04:00:42;;;;;;;6.43;4.80;;;9.90;99.90;;;;;;5058520;28;20200;-75
2021/10/27 04:03:09;;;;;;;8.40;6.03;;;10.00;99.90;;;;;;5057085;28;20667;-75
2021/10/27 04:05:36;;;;;;;8.83;6.10;;;10.00;99.90;;;;;;5033731;28;20228;-75
2021/10/27 04:08:04;;;;;;;12.77;7.37;;;10.10;99.90;;;;;;5046851;28;20291;-75
2021/10/27 04:10:31;;;;;;;11.10;7.00;;;10.10;99.90;;;;;;5041262;28;20563;-75
2021/10/27 04:12:59;;;;;;;7.10;5.40;;;10.10;99.90;;;;;;5049664;28;20213;-75
2021/10/27 04:15:26;;;;;;;8.23;5.67;;;10.10;99.90;;;;;;5056544;28;20202;-75
2021/10/27 04:17:53;;;;;;;7.17;5.10;;;10.10;99.90;;;;;;5036095;28;20291;-75
2021/10/27 04:20:20;;;;;;;5.27;4.63;;;10.20;99.90;;;;;;5070328;28;20238;-75
2021/10/27 04:22:47;;;;;;;6.63;5.37;;;10.20;99.90;;;;;;5049382;28;20209;-75
2021/10/27 04:25:14;;;;;;;7.37;5.73;;;10.20;99.90;;;;;;5060979;28;20206;-75
2021/10/27 04:27:42;;;;;;;7.23;5.73;;;10.20;99.90;;;;;;5052080;28;20704;-75
2021/10/27 04:30:11;;;;;;;5.57;4.67;;;10.20;99.90;;;;;;5058525;28;20207;-74
2021/10/27 04:32:41;;;;;;;5.87;4.93;;;10.20;99.90;;;;;;5055481;28;20209;-75
2021/10/27 04:35:09;;;;;;;6.93;5.13;;;10.30;99.90;;;;;;5033659;28;20208;-74
2021/10/27 04:37:39;;;;;;;8.13;5.87;;;10.30;99.90;;;;;;5051375;28;20206;-74
2021/10/27 04:40:07;;;;;;;11.23;6.37;;;10.30;99.90;;;;;;5050227;28;20270;-74
2021/10/27 04:42:34;;;;;;;8.73;6.37;;;10.30;99.90;;;;;;5050991;28;20219;-74
2021/10/27 04:45:01;;;;;;;5.97;5.17;;;10.30;99.90;;;;;;5032521;28;20202;-74
2021/10/27 04:47:29;;;;;;;6.67;4.90;;;10.30;99.90;;;;;;5052608;28;20580;-74
2021/10/27 04:49:57;;;;;;;4.40;4.00;;;10.40;99.90;;;;;;5032328;28;20216;-74
2021/10/27 04:52:25;;;;;;;3.57;3.27;;;10.40;99.90;;;;;;5033050;28;20219;-77
2021/10/27 04:54:52;;;;;;;4.37;3.97;;;10.40;99.90;;;;;;5033160;28;20586;-78
2021/10/27 04:57:19;;;;;;;6.60;4.80;;;10.40;99.90;;;;;;5039564;28;20197;-78
2021/10/27 04:59:47;;;;;;;6.40;4.87;;;10.40;99.90;;;;;;5063084;28;20262;-79
2021/10/27 05:02:16;;;;;;;5.60;4.53;;;10.40;99.90;;;;;;5031680;28;20214;-78
2021/10/27 05:04:46;;;;;;;4.63;4.03;;;10.40;99.90;;;;;;5044390;28;20573;-78
2021/10/27 05:07:15;;;;;;;4.50;4.10;;;10.40;99.90;;;;;;5040563;28;20717;-78
2021/10/27 05:09:42;;;;;;;6.30;4.33;;;10.40;99.90;;;;;;5049155;28;20205;-78
2021/10/27 05:12:10;;;;;;;4.87;4.10;;;10.40;99.90;;;;;;5041132;28;20704;-78
2021/10/27 05:14:39;;;;;;;4.20;3.80;;;10.50;99.90;;;;;;5056301;28;20564;-79
2021/10/27 05:17:10;;;;;;;5.33;4.30;;;10.50;99.90;;;;;;5036149;28;20205;-79
2021/10/27 05:19:37;;;;;;;4.30;3.90;;;10.50;99.90;;;;;;5048595;28;20201;-79
2021/10/27 05:22:06;;;;;;;4.47;3.60;;;10.60;99.90;;;;;;5051392;28;20198;-79
2021/10/27 05:24:33;;;;;;;3.70;3.37;;;10.60;99.90;;;;;;5051000;28;20209;-78
2021/10/27 05:27:00;;;;;;;3.70;3.30;;;10.60;99.90;;;;;;5059550;28;20256;-79
2021/10/27 05:29:27;;;;;;;4.47;4.07;;;10.70;99.90;;;;;;5062504;28;20207;-78
2021/10/27 05:31:54;;;;;;;5.10;4.17;;;10.70;99.90;;;;;;5035759;28;20230;-79
2021/10/27 05:34:21;;;;;;;7.47;5.90;;;10.70;99.90;;;;;;5032365;28;20213;-78
2021/10/27 05:36:49;;;;;;;8.33;4.80;;;10.80;99.90;;;;;;5060558;28;20224;-78
2021/10/27 05:39:18;;;;;;;4.90;4.40;;;10.80;99.90;;;;;;5050919;28;20303;-79
2021/10/27 05:41:46;;;;;;;5.90;4.53;;;10.80;99.90;;;;;;5051280;28;20204;-79
2021/10/27 05:44:13;;;;;;;6.87;4.83;;;10.80;99.90;;;;;;5050155;28;20242;-78
2021/10/27 05:46:43;;;;;;;6.17;5.23;;;10.90;99.90;;;;;;5039217;28;20218;-78
2021/10/27 05:49:16;;;;;;;6.30;5.20;;;10.90;99.90;;;;;;5062781;28;20285;-79
2021/10/27 05:51:46;;;;;;;6.40;5.17;;;10.90;99.90;;;;;;5062672;28;20650;-78
2021/10/27 05:57:13;;;;;;;7.90;5.70;;;11.00;99.90;;;;;;4977722;28;20709;-78
2021/10/27 05:59:40;;;;;;;8.67;5.70;;;11.00;99.90;;;;;;4975528;28;20247;-78
2021/10/27 06:02:07;;;;;;;6.63;5.00;;;11.10;99.90;;;;;;4953653;28;20220;-78
2021/10/27 06:04:36;;;;;;;9.47;6.37;;;11.10;99.90;;;;;;4968773;28;20200;-78
2021/10/27 06:07:03;;;;;;;8.90;5.83;;;11.10;99.90;;;;;;4968687;28;20303;-78
2021/10/27 06:09:30;;;;;;;10.50;6.97;;;11.10;99.90;;;;;;4951879;28;20681;-77
2021/10/27 06:12:00;;;;;;;7.33;5.50;;;11.20;99.90;;;;;;4973786;28;20225;-78
2021/10/27 06:14:29;;;;;;;8.00;6.47;;;11.20;99.90;;;;;;4973826;28;20221;-78
2021/10/27 06:16:56;;;;;;;8.27;5.93;;;11.00;99.90;;;;;;4955642;28;20199;-78
2021/10/27 06:19:23;;;;;;;10.73;6.07;;;11.30;99.90;;;;;;4973733;28;20204;-78
2021/10/27 06:21:50;;;;;;;8.40;5.77;;;11.40;99.90;;;;;;4962888;28;20310;-77
2021/10/27 06:24:17;;;;;;;10.60;7.10;;;11.40;99.90;;;;;;4969085;28;20261;-77
2021/10/27 06:26:44;;;;;;;9.03;6.70;;;11.50;99.90;;;;;;4956877;28;20596;-77
2021/10/27 06:29:18;;;;;;;10.77;7.03;;;11.50;99.90;;;;;;5034740;28;20296;-79
2021/10/27 06:31:50;;;;;;;7.73;5.80;;;11.50;99.90;;;;;;5029693;28;20272;-79
2021/10/27 06:34:28;;;;;;;8.67;6.13;;;11.60;99.90;;;;;;5047610;28;20409;-78
2021/10/27 06:37:07;;;;;;;6.37;5.20;;;11.70;99.90;;;;;;5050583;28;20199;-79
2021/10/27 06:48:01;;;;;;;9.47;6.53;;;11.90;99.90;;;;;;4997208;28;20218;-77
2021/10/27 06:50:29;;;;;;;8.77;5.97;;;12.00;99.90;;;;;;4976869;28;20865;-78
2021/10/27 06:52:56;;;;;;;8.93;6.60;;;12.00;99.90;;;;;;4979058;28;20299;-78
2021/10/27 06:55:23;;;;;;;8.83;6.20;;;12.00;99.90;;;;;;4999107;28;20244;-78
2021/10/27 06:57:50;;;;;;;9.43;6.67;;;12.00;99.90;;;;;;4971164;28;20306;-78
2021/10/27 07:00:21;;;;;;;7.40;6.03;;;12.10;99.90;;;;;;4971155;28;20300;-77
2021/10/27 07:05:52;;;;;;;7.07;5.30;;;12.10;99.90;;;;;;4954124;28;20211;-78
2021/10/27 07:16:42;;;;;;;11.73;7.77;;;12.30;99.90;;;;;;4949372;28;20210;-78
2021/10/27 07:19:09;;;;;;;8.37;6.50;;;12.40;99.90;;;;;;4985269;28;20225;-78
2021/10/27 07:21:39;;;;;;;10.70;6.33;;;12.40;99.90;;;;;;4981860;28;20211;-78
2021/10/27 07:24:07;;;;;;;6.67;4.93;;;12.40;99.90;;;;;;4976979;28;20722;-78
2021/10/27 07:26:36;;;;;;;7.73;5.77;;;12.50;99.90;;;;;;4971586;28;20301;-78
2021/10/27 07:29:04;;;;;;;8.77;5.80;;;12.50;99.90;;;;;;4979375;28;20308;-78
2021/10/27 07:31:31;;;;;;;8.33;6.13;;;12.60;99.90;;;;;;4984580;28;20204;-77
2021/10/27 07:34:05;;;;;;;9.47;6.90;;;12.60;99.90;;;;;;4989661;28;20804;-78
2021/10/27 07:42:11;;;;;;;8.03;6.00;;;12.70;99.90;;;;;;4951529;28;20222;-78
2021/10/27 07:44:38;;;;;;;6.53;5.23;;;12.90;99.90;;;;;;4959100;28;20296;-79
2021/10/27 07:47:05;;;;;;;6.90;5.13;;;12.80;99.90;;;;;;4944643;28;20778;-79
2021/10/27 07:49:32;;;;;;;8.63;6.20;;;12.90;99.90;;;;;;4960918;28;20668;-77
2021/10/27 07:51:59;;;;;;;8.30;5.90;;;12.90;99.90;;;;;;4971785;28;20226;-77
2021/10/27 07:54:28;;;;;;;13.40;8.23;;;13.00;99.90;;;;;;4982923;28;20369;-77
2021/10/27 07:56:55;;;;;;;12.10;8.37;;;13.10;99.90;;;;;;4993508;28;20231;-78
2021/10/27 07:59:22;;;;;;;11.83;8.00;;;13.10;99.90;;;;;;4972885;28;20213;-78
2021/10/27 08:01:49;;;;;;;10.07;7.70;;;13.20;99.90;;;;;;4988782;28;20258;-78
2021/10/27 08:04:16;;;;;;;9.40;7.23;;;13.20;99.90;;;;;;4969674;28;20688;-78
2021/10/27 08:06:45;;;;;;;12.00;7.17;;;13.30;99.90;;;;;;4970991;28;20306;-77
2021/10/27 08:09:13;;;;;;;10.70;7.73;;;13.40;99.90;;;;;;4989117;28;20266;-78
2021/10/27 08:11:41;;;;;;;11.53;8.03;;;13.40;99.90;;;;;;4970119;28;20663;-78
2021/10/27 08:14:09;;;;;;;8.43;6.73;;;13.40;99.90;;;;;;4981665;28;20287;-78
2021/10/27 08:16:36;;;;;;;9.67;7.13;;;13.50;99.90;;;;;;5015674;28;20290;-79
2021/10/27 08:19:04;;;;;;;10.40;6.20;;;13.50;99.90;;;;;;5022414;28;20302;-78
2021/10/27 08:21:31;;;;;;;8.47;6.33;;;13.50;99.90;;;;;;5025393;28;20199;-77
2021/10/27 08:23:58;;;;;;;13.93;7.80;;;13.60;99.90;;;;;;5023604;28;20196;-78
2021/10/27 08:26:26;;;;;;;12.83;8.30;;;13.60;99.90;;;;;;5018124;28;20256;-77
2021/10/27 08:28:57;;;;;;;8.90;7.10;;;13.70;99.90;;;;;;5017917;28;20569;-77
2021/10/27 08:31:37;;;;;;;7.93;5.97;;;13.70;99.90;;;;;;5010781;28;20203;-78
2021/10/27 08:34:09;;;;;;;10.37;7.23;;;13.70;99.90;;;;;;5022007;28;20233;-78
2021/10/27 08:36:36;;;;;;;8.63;6.63;;;13.70;99.90;;;;;;5016228;28;20207;-77
2021/10/27 08:39:05;;;;;;;9.23;6.90;;;13.70;99.90;;;;;;5011294;28;20215;-77
2021/10/27 08:41:33;;;;;;;8.87;6.27;;;13.70;99.90;;;;;;5020120;28;20215;-78
2021/10/27 08:44:04;;;;;;;9.13;6.97;;;13.80;99.90;;;;;;5028137;28;20203;-77
2021/10/27 08:46:33;;;;;;;9.93;6.70;;;13.80;99.90;;;;;;5010648;28;20219;-77
2021/10/27 08:49:02;;;;;;;11.93;7.10;;;13.90;99.90;;;;;;5027729;28;20223;-77
2021/10/27 08:51:29;;;;;;;8.73;6.63;;;14.00;99.90;;;;;;5009878;28;20573;-77
2021/10/27 08:53:57;;;;;;;8.73;6.27;;;14.10;99.90;;;;;;5017748;28;20312;-76
2021/10/27 08:56:27;;;;;;;9.43;6.90;;;14.10;99.90;;;;;;5030707;28;20216;-77
2021/10/27 08:58:58;;;;;;;9.13;6.70;;;14.20;99.90;;;;;;5041024;28;20311;-77
2021/10/27 09:01:36;;;;;;;9.00;6.70;;;14.20;99.90;;;;;;5035134;28;20209;-77
2021/10/27 09:07:05;;;;;;;8.67;6.03;;;14.20;99.90;;;;;;4950113;28;20210;-77
2021/10/27 09:09:50;;;;;;;6.93;5.40;;;14.10;99.90;;;;;;4967472;28;20220;-78
2021/10/27 09:44:30;;;;;;;4.30;3.90;;;14.20;99.90;;;;;;4823615;29;20373;-78
2021/10/27 09:47:41;;;;;;;5.67;4.53;;;14.30;99.90;;;;;;4853160;29;20243;-78
2021/10/27 10:04:10;;;;;;;5.27;4.33;;;14.60;99.90;;;;;;4912946;29;20225;-78
2021/10/27 10:06:39;;;;;;;6.07;4.40;;;14.70;99.90;;;;;;4928867;29;20687;-78
2021/10/27 10:09:08;;;;;;;5.77;3.67;;;14.70;99.90;;;;;;4928441;29;20595;-77
2021/10/27 10:11:36;;;;;;;4.23;3.80;;;14.80;99.90;;;;;;4927464;29;20215;-77
2021/10/27 10:14:05;;;;;;;4.77;4.13;;;14.90;99.90;;;;;;4927095;29;20228;-77
2021/10/27 10:16:36;;;;;;;6.37;4.50;;;14.90;99.90;;;;;;4978430;28;20218;-78
2021/10/27 10:19:07;;;;;;;3.47;3.17;;;14.90;99.90;;;;;;4982374;28;20552;-78
2021/10/27 10:21:37;;;;;;;4.13;3.27;;;15.00;99.90;;;;;;5022547;28;20202;-77
2021/10/27 10:24:29;;;;;;;3.43;3.13;;;15.00;99.90;;;;;;5020268;28;20233;-78
2021/10/27 10:26:58;;;;;;;3.47;3.17;;;15.10;99.90;;;;;;5009637;28;20198;-78
2021/10/27 10:29:59;;;;;;;3.70;3.10;;;15.20;99.90;;;;;;5024335;28;20321;-78
2021/10/27 10:32:35;;;;;;;3.37;2.77;;;15.30;99.90;;;;;;4957937;28;20207;-77
2021/10/27 10:35:12;;;;;;;4.57;3.40;;;15.30;99.90;;;;;;4968066;28;20225;-77
2021/10/27 10:37:43;;;;;;;4.37;2.93;;;15.30;99.90;;;;;;4981232;28;20207;-78
2021/10/27 10:40:48;;;;;;;4.10;3.30;;;15.40;99.90;;;;;;4952280;28;20665;-77
2021/10/27 10:44:01;;;;;;;2.60;2.40;;;15.40;99.90;;;;;;4957413;28;20797;-77
2021/10/27 11:02:17;;;;;;;2.00;1.90;;;15.50;99.90;;;;;;4899822;29;20674;-78
2021/10/27 11:24:40;;;;;;;7.80;1.47;;;15.50;99.90;;;;;;4929970;28;20727;-77
2021/10/27 11:38:37;;;;;;;2.27;2.17;;;15.30;99.90;;;;;;4928528;28;20215;-77
2021/10/27 11:41:16;;;;;;;2.23;2.03;;;15.20;99.90;;;;;;4980394;28;20739;-77
2021/10/27 11:43:57;;;;;;;2.27;2.10;;;15.10;99.90;;;;;;4983964;28;20221;-77
2021/10/27 11:46:44;;;;;;;1.80;1.70;;;15.50;99.90;;;;;;5004676;28;20218;-77
2021/10/27 11:49:13;;;;;;;2.20;2.10;;;15.10;99.90;;;;;;4989466;28;20219;-78
2021/10/27 11:51:41;;;;;;;2.23;2.07;;;15.10;99.90;;;;;;4989432;28;20343;-77
2021/10/27 11:54:15;;;;;;;4.70;3.00;;;15.10;99.90;;;;;;5005195;28;20314;-77
2021/10/27 11:56:43;;;;;;;3.40;2.87;;;15.10;99.90;;;;;;4980745;28;20269;-77
2021/10/27 11:59:09;;;;;;;2.40;2.23;;;15.10;99.90;;;;;;4988530;28;20214;-77
2021/10/27 12:01:40;;;;;;;2.30;2.10;;;15.00;99.90;;;;;;4988783;28;20493;-78
2021/10/27 12:04:11;;;;;;;2.10;2.00;;;15.00;99.90;;;;;;4979606;28;20199;-80
2021/10/27 12:06:42;;;;;;;2.50;2.30;;;15.00;99.90;;;;;;5026079;28;20254;-77
2021/10/27 12:12:17;;;;;;;3.90;3.37;;;15.00;99.90;;;;;;4973123;28;20207;-78
2021/10/27 12:15:29;;;;;;;2.70;2.50;;;15.00;99.90;;;;;;4988627;28;20206;-78
2021/10/27 12:18:07;;;;;;;4.53;3.60;;;15.00;99.90;;;;;;4989537;28;20734;-78
2021/10/27 12:20:37;;;;;;;4.87;3.47;;;15.00;99.90;;;;;;5000981;28;20221;-77
2021/10/27 12:23:05;;;;;;;4.93;3.80;;;15.00;99.90;;;;;;4975928;28;20214;-76
2021/10/27 12:25:33;;;;;;;3.90;3.40;;;15.00;99.90;;;;;;4988803;28;20217;-76
2021/10/27 12:28:04;;;;;;;4.23;3.90;;;14.90;99.90;;;;;;4994335;28;20218;-77
2021/10/27 12:30:43;;;;;;;3.43;3.03;;;14.90;99.90;;;;;;4995365;28;20287;-76
2021/10/27 12:33:12;;;;;;;3.60;3.30;;;14.90;99.90;;;;;;4984563;28;20234;-77
2021/10/27 12:35:40;;;;;;;4.27;3.20;;;14.90;99.90;;;;;;4983957;28;20638;-75
2021/10/27 12:38:15;;;;;;;4.50;4.07;;;14.90;99.90;;;;;;4986589;28;20215;-76
2021/10/27 12:40:43;;;;;;;3.73;3.40;;;14.90;99.90;;;;;;4995629;28;20648;-77
2021/10/27 12:43:13;;;;;;;3.57;3.27;;;14.90;99.90;;;;;;4980803;28;20234;-77
2021/10/27 12:45:42;;;;;;;3.67;3.37;;;14.90;99.90;;;;;;4988588;28;20199;-77
2021/10/27 12:48:17;;;;;;;6.20;3.90;;;14.90;99.90;;;;;;4990082;28;20237;-76
2021/10/27 12:50:52;;;;;;;4.23;3.83;;;14.90;99.90;;;;;;5052194;28;20672;-76
2021/10/27 12:53:31;;;;;;;3.60;3.30;;;14.90;99.90;;;;;;5051903;28;20258;-76
2021/10/27 12:56:07;;;;;;;3.43;3.20;;;14.90;99.90;;;;;;5033366;28;20232;-76
2021/10/27 12:58:35;;;;;;;3.10;2.80;;;14.90;99.90;;;;;;5045085;28;20196;-77
2021/10/27 13:01:15;;;;;;;3.40;3.10;;;14.90;99.90;;;;;;5060901;28;20219;-76
2021/10/27 13:04:24;;;;;;;3.40;3.10;;;14.90;99.90;;;;;;5049419;28;20205;-76
2021/10/27 13:07:03;;;;;;;4.20;3.00;;;14.90;99.90;;;;;;5055405;28;20219;-78
2021/10/27 13:10:03;;;;;;;3.17;2.97;;;14.90;99.90;;;;;;5050925;28;20232;-76
2021/10/27 13:12:59;;;;;;;3.07;2.83;;;14.90;99.90;;;;;;5032492;28;20231;-75
2021/10/27 13:15:41;;;;;;;6.83;5.23;;;14.90;99.90;;;;;;5054987;28;20209;-77
2021/10/27 13:18:32;;;;;;;5.03;4.40;;;14.90;99.90;;;;;;5036743;28;20208;-76
2021/10/27 13:21:12;;;;;;;4.97;4.43;;;14.90;99.90;;;;;;5049912;28;20203;-75
2021/10/27 13:31:43;;;;;;;4.13;3.73;;;14.90;99.90;;;;;;5046388;28;20642;-76
2021/10/27 13:34:10;;;;;;;4.00;3.53;;;14.90;99.90;;;;;;5045190;28;20228;-76
2021/10/27 13:36:38;;;;;;;3.70;3.40;;;14.90;99.90;;;;;;5059775;28;20203;-76
2021/10/27 13:39:05;;;;;;;5.40;3.87;;;14.90;99.90;;;;;;5056053;28;20228;-76
2021/10/27 13:41:33;;;;;;;2.90;2.70;;;14.90;99.90;;;;;;5060016;28;20248;-76
2021/10/27 13:44:06;;;;;;;6.27;4.40;;;15.00;99.90;;;;;;5062677;28;20197;-76
2021/10/27 13:46:48;;;;;;;3.17;2.87;;;14.90;99.90;;;;;;5050777;28;20229;-76
2021/10/27 14:06:07;;;;;;;4.30;3.90;;;14.90;99.90;;;;;;4990976;28;20826;-77
2021/10/27 14:08:45;;;;;;;5.87;4.27;;;14.90;99.90;;;;;;4993602;28;20219;-76
2021/10/27 14:11:18;;;;;;;4.00;3.63;;;14.90;99.90;;;;;;5001591;28;20268;-76
2021/10/27 14:13:58;;;;;;;3.83;3.47;;;14.90;99.90;;;;;;4997602;28;20229;-76
2021/10/27 14:19:38;;;;;;;3.13;2.93;;;14.90;99.90;;;;;;5010705;28;20201;-76
2021/10/27 14:47:34;;;;;;;4.60;3.40;;;15.00;99.90;;;;;;4966228;28;20250;-77
2021/10/27 15:20:18;;;;;;;3.10;2.50;;;15.00;99.90;;;;;;4979145;28;20199;-76
2021/10/27 15:22:56;;;;;;;4.53;2.60;;;15.00;99.90;;;;;;4989950;28;20207;-77
2021/10/27 15:25:45;;;;;;;2.93;2.50;;;15.10;99.90;;;;;;5033469;28;20208;-76
2021/10/27 15:28:36;;;;;;;2.77;2.20;;;15.10;99.90;;;;;;5045411;28;20304;-76
2021/10/27 15:31:28;;;;;;;4.17;2.40;;;15.10;99.90;;;;;;5033934;28;20207;-76
2021/10/27 15:34:04;;;;;;;3.63;2.77;;;15.10;99.90;;;;;;5045341;28;20206;-75
2021/10/27 15:36:51;;;;;;;3.20;2.70;;;15.10;99.90;;;;;;5026965;28;20216;-77
2021/10/27 15:42:20;;;;;;;3.80;2.80;;;15.10;99.90;;;;;;5041843;28;20190;-75
2021/10/27 15:45:00;;;;;;;3.33;3.03;;;15.10;99.90;;;;;;5027191;28;20209;-75
2021/10/27 15:50:38;;;;;;;2.40;2.30;;;15.20;99.90;;;;;;5038325;28;20656;-76
2021/10/27 15:53:07;;;;;;;2.40;2.20;;;15.20;99.90;;;;;;5050588;28;20213;-76
2021/10/27 15:55:34;;;;;;;2.83;2.20;;;15.20;99.90;;;;;;5051488;28;20636;-76
2021/10/27 15:58:04;;;;;;;2.77;2.40;;;15.20;99.90;;;;;;5051245;28;20524;-76
2021/10/27 16:00:32;;;;;;;3.17;2.80;;;15.20;99.90;;;;;;5051104;28;20512;-76
2021/10/27 16:03:00;;;;;;;3.10;2.67;;;15.20;99.90;;;;;;5034436;28;20228;-76
2021/10/27 16:05:28;;;;;;;3.53;2.90;;;15.20;99.90;;;;;;5050932;28;20209;-76
2021/10/27 16:07:56;;;;;;;4.03;3.00;;;15.20;99.90;;;;;;5065625;28;20274;-75
2021/10/27 16:10:23;;;;;;;2.47;2.27;;;15.20;99.90;;;;;;5047038;28;20316;-76
2021/10/27 16:12:51;;;;;;;2.23;2.10;;;15.20;99.90;;;;;;5046941;28;20263;-76
2021/10/27 16:15:24;;;;;;;3.73;2.43;;;15.20;99.90;;;;;;5059446;28;20632;-76
2021/10/27 16:17:52;;;;;;;2.37;2.17;;;15.20;99.90;;;;;;5041468;28;20202;-76
2021/10/27 16:20:20;;;;;;;5.20;3.63;;;15.20;99.90;;;;;;5063150;28;20186;-76
2021/10/27 16:22:48;;;;;;;2.87;2.67;;;15.20;99.90;;;;;;5062580;28;20307;-76
2021/10/27 16:25:16;;;;;;;3.70;2.83;;;15.10;99.90;;;;;;5045307;28;20216;-76
2021/10/27 16:27:43;;;;;;;2.60;2.40;;;15.10;99.90;;;;;;5060908;28;20209;-76
2021/10/27 16:30:11;;;;;;;2.40;2.10;;;15.10;99.90;;;;;;5044938;28;20217;-77
2021/10/27 16:32:38;;;;;;;4.50;2.80;;;15.10;99.90;;;;;;5044448;28;20231;-77
2021/10/27 16:35:06;;;;;;;3.57;2.50;;;15.10;99.90;;;;;;5046312;28;20237;-76
2021/10/27 16:37:35;;;;;;;2.83;2.60;;;15.10;99.90;;;;;;5043357;28;20304;-77
2021/10/27 16:40:04;;;;;;;3.10;2.63;;;15.10;99.90;;;;;;5072366;28;20526;-76
2021/10/27 16:42:33;;;;;;;4.10;3.00;;;15.10;99.90;;;;;;5042778;28;20206;-76